• Join FlightAware (Why Join?)
  • Login
  • US Flag 
01:06AM EDT


 

Airport Tracker/Info


-or-


 

Live Flight TrackerFlight Track Log ✈ ASQ6041 ✈ 13-Apr-2013 ✈ KORF - KIAD

Flight Track Log - Related Links

Times and Time Zones

All times are in EDT time to prevent confusion due to time zone crossing. See the ASQ6041 flight status page for this flight to view local times or setup timezone preferences in your user account.

Time Position Orientation Groundspeed Altitude Reporting Facility
EDT Latitude Longitude Course Direction KTS MPH feet Rate Location/Type
11:39AM 36.9056 -76.1894 300° West 154 177 800  Level Washington Center
11:39AM 36.9244 -76.1714 37° Northeast 157 181 2,000 2,160 Climbing Washington Center
11:39AM 36.9411 -76.1611 26° Northeast 179 206 2,500 1,920 Climbing Washington Center
11:40AM 36.9578 -76.1922 304° West 213 245 3,800 2,220 Climbing Washington Center
11:40AM 36.9681 -76.2261 291° West 211 243 4,700 2,640 Climbing Washington Center
11:41AM 36.9803 -76.2628 293° West 214 246 6,500 2,580 Climbing Washington Center
11:41AM 36.9886 -76.2914 290° West 221 254 7,300 2,700 Climbing Washington Center
11:42AM 37.0695 -76.5723 302° West  Level FlightAware Approximate
11:42AM 37.0008 -76.3278 293° West 229 264 9,000  Level Washington Center
11:42AM 37.0194 -76.3619 304° West 236 272 9,900 2,400 Climbing Washington Center
11:43AM 37.1153 -76.6670 300° West  Level FlightAware Approximate
11:43AM 37.0439 -76.4244 296° West 242 278 12,400  Level Washington Center
11:44AM 37.1591 -76.7632 300° West  Level FlightAware Approximate
11:44AM 37.0728 -76.4953 297° West 242 278 14,500  Level Washington Center
11:45AM 37.1033 -76.5683 298° West 237 273 16,000 720 Climbing Washington Center
11:46AM 37.1381 -76.6522 297° West 263 303 16,000  Level Washington Center
11:47AM 37.1769 -76.7439 298° West 288 331 16,000  Level Washington Center
11:48AM 37.2156 -76.8386 297° West 299 344 16,000  Level Washington Center
11:49AM 37.2522 -76.9356 295° West 306 352 16,000  Level Washington Center
11:50AM 37.2928 -77.0328 298° West 295 339 16,000  Level Washington Center
11:51AM 37.3272 -77.1119 299° West 290 334 16,000  Level Washington Center
11:52AM 37.3867 -77.1889 314° West 285 328 16,000  Level Washington Center
11:53AM 37.4442 -77.2556 317° Northwest 280 322 16,000  Level Washington Center
11:54AM 37.5039 -77.3222 318° Northwest 280 322 16,000  Level Washington Center
11:55AM 37.5803 -77.3658 336° Northwest 286 329 16,000  Level Washington Center
11:56AM 37.6589 -77.4097 336° Northwest 291 335 16,000  Level Washington Center
11:57AM 37.7333 -77.4508 336° Northwest 297 342 16,000  Level Washington Center
11:58AM 37.8119 -77.4947 336° Northwest 297 342 16,000 -120 Level Washington Center
11:59AM 37.8842 -77.5361 336° Northwest 297 342 15,800 -840 Descending Washington Center
12:00PM 37.9672 -77.5672 344° North 297 342 14,400 -1,500 Descending Washington Center
12:01PM 38.0556 -77.5247 21° North 297 342 12,800 -1,620 Descending Washington Center
12:02PM 38.1378 -77.4714 27° Northeast 310 357 11,200 -1,440 Descending Washington Center
12:03PM 38.2175 -77.4258 24° Northeast 310 357 10,000 -1,260 Descending Washington Center
12:04PM 38.2892 -77.3853 24° Northeast 293 337 8,700 -1,320 Descending Washington Center
12:05PM 38.3453 -77.3944 353° North 245 282 7,400 -1,320 Descending Washington Center
12:06PM 38.4181 -77.4069 352° North 234 269 6,100 -1,200 Descending Washington Center
12:07PM 38.4783 -77.4242 347° North 240 276 5,000 -600 Descending Washington Center
12:08PM 38.5511 -77.4394 351° North 240 276 5,000 -480 Level Washington Center
12:09PM 38.6114 -77.4489 353° North 240 276 4,100 -660 Descending Washington Center
12:10PM 38.6500 -77.4500 359° North 231 266 4,000 -480 Descending Potomac TRACON
12:11PM 38.7167 -77.4667 349° North 234 269 3,400 -840 Descending Potomac TRACON
12:12PM 38.7833 -77.4667 360° North 219 252 2,400 -600 Descending Potomac TRACON
12:13PM 38.8333 -77.4667 360° North 200 230 2,300 -120 Descending Potomac TRACON